createdAt,value
2017-10-04T00:01:39.850Z,1.60
2017-10-04T00:04:13.465Z,1.37
2017-10-04T00:06:46.932Z,1.67
2017-10-04T00:09:20.693Z,1.60
2017-10-04T00:11:54.234Z,1.30
2017-10-04T00:14:27.869Z,1.43
2017-10-04T00:17:01.421Z,2.33
2017-10-04T00:19:34.937Z,1.70
2017-10-04T00:22:08.525Z,1.60
2017-10-04T00:24:42.269Z,1.50
2017-10-04T00:27:15.702Z,1.83
2017-10-04T00:29:49.401Z,1.57
2017-10-04T00:32:22.971Z,1.77
2017-10-04T00:34:57.941Z,1.70
2017-10-04T00:37:31.957Z,1.53
2017-10-04T00:40:05.722Z,1.30
2017-10-04T00:42:39.350Z,1.17
2017-10-04T00:45:13.534Z,1.90
2017-10-04T00:47:47.856Z,1.60
2017-10-04T00:50:21.642Z,1.60
2017-10-04T00:52:55.379Z,1.67
2017-10-04T00:55:28.858Z,1.80
2017-10-04T00:58:02.566Z,1.53
2017-10-04T01:00:36.253Z,1.60
2017-10-04T01:03:09.882Z,1.57
2017-10-04T01:05:43.465Z,1.50
2017-10-04T01:08:17.058Z,1.77
2017-10-04T01:10:50.567Z,1.60
2017-10-04T01:13:24.149Z,2.50
2017-10-04T01:15:57.761Z,1.67
2017-10-04T01:18:31.304Z,1.80
2017-10-04T01:21:04.951Z,2.07
2017-10-04T01:23:38.676Z,1.90
2017-10-04T01:26:12.256Z,1.90
2017-10-04T01:28:46.590Z,1.67
2017-10-04T01:31:20.288Z,1.87
2017-10-04T01:33:54.566Z,2.10
2017-10-04T01:36:28.189Z,1.50
2017-10-04T01:39:01.680Z,1.80
2017-10-04T01:41:35.197Z,1.93
2017-10-04T01:44:08.705Z,1.60
2017-10-04T01:46:42.409Z,2.07
2017-10-04T01:49:16.683Z,2.47
2017-10-04T01:51:50.293Z,1.93
2017-10-04T01:54:24.152Z,1.77
2017-10-04T01:56:57.840Z,1.90
2017-10-04T01:59:31.484Z,1.67
2017-10-04T02:02:05.131Z,1.87
2017-10-04T02:04:38.702Z,1.67
2017-10-04T02:07:12.342Z,1.67
2017-10-04T02:09:45.944Z,1.63
2017-10-04T02:12:19.638Z,2.70
2017-10-04T02:14:54.023Z,1.70
2017-10-04T02:17:27.648Z,1.73
2017-10-04T02:20:01.950Z,1.97
2017-10-04T02:22:35.541Z,2.20
2017-10-04T02:25:09.250Z,1.70
2017-10-04T02:27:43.296Z,1.30
2017-10-04T02:30:17.829Z,3.30
2017-10-04T02:32:51.415Z,1.90
2017-10-04T02:35:25.831Z,1.43
2017-10-04T02:37:59.383Z,1.70
2017-10-04T02:40:33.756Z,1.53
2017-10-04T02:43:07.318Z,1.60
2017-10-04T02:45:41.162Z,1.80
2017-10-04T02:48:14.662Z,2.50
2017-10-04T02:50:48.941Z,1.60
2017-10-04T02:53:22.577Z,1.60
2017-10-04T02:55:56.101Z,1.67
2017-10-04T02:58:29.801Z,1.33
2017-10-04T03:01:03.346Z,1.43
2017-10-04T03:03:36.978Z,1.63
2017-10-04T03:06:10.577Z,1.43
2017-10-04T03:08:44.085Z,1.90
2017-10-04T03:11:18.401Z,1.70
2017-10-04T03:13:51.897Z,1.70
2017-10-04T03:16:25.502Z,2.30
2017-10-04T03:18:59.202Z,2.00
2017-10-04T03:21:33.587Z,1.83
2017-10-04T03:24:07.219Z,1.50
2017-10-04T03:26:40.882Z,1.80
2017-10-04T03:29:14.635Z,1.43
2017-10-04T03:31:48.221Z,1.73
2017-10-04T03:34:21.804Z,1.50
2017-10-04T03:36:55.384Z,2.50
2017-10-04T03:39:29.081Z,1.50
2017-10-04T03:42:02.521Z,2.10
2017-10-04T03:44:36.092Z,1.87
2017-10-04T03:47:09.726Z,1.80
2017-10-04T03:49:43.333Z,1.67
2017-10-04T03:52:16.841Z,1.77
2017-10-04T03:54:50.525Z,1.50
2017-10-04T03:57:24.845Z,2.00
2017-10-04T03:59:58.340Z,2.20
2017-10-04T04:02:31.946Z,1.93
2017-10-04T04:05:05.551Z,1.70
2017-10-04T04:07:39.229Z,1.70
2017-10-04T04:10:13.048Z,1.67
2017-10-04T04:12:46.752Z,1.90
2017-10-04T04:15:20.364Z,3.03
2017-10-04T04:17:53.958Z,1.60
2017-10-04T04:20:27.513Z,2.50
2017-10-04T04:23:01.162Z,1.93
2017-10-04T04:25:34.728Z,2.10
2017-10-04T04:28:09.037Z,2.30
2017-10-04T04:30:42.677Z,2.60
2017-10-04T04:33:16.233Z,2.17
2017-10-04T04:35:50.081Z,2.43
2017-10-04T04:38:35.885Z,1.90
2017-10-04T04:41:09.451Z,2.60
2017-10-04T04:43:43.030Z,1.97
2017-10-04T04:46:16.555Z,2.00
2017-10-04T04:48:50.142Z,2.20
2017-10-04T04:51:23.776Z,2.17
2017-10-04T04:53:57.563Z,1.77
2017-10-04T04:56:31.149Z,2.27
2017-10-04T04:59:04.754Z,2.30
2017-10-04T05:01:38.286Z,2.53
2017-10-04T05:04:13.626Z,2.63
2017-10-04T05:06:47.305Z,2.60
2017-10-04T05:09:20.902Z,3.53
2017-10-04T05:11:54.733Z,3.30
2017-10-04T05:14:28.231Z,2.90
2017-10-04T05:17:01.935Z,2.80
2017-10-04T05:19:35.439Z,2.73
2017-10-04T05:22:09.034Z,3.53
2017-10-04T05:24:42.848Z,3.00
2017-10-04T05:27:16.466Z,3.13
2017-10-04T05:29:50.261Z,3.67
2017-10-04T05:32:25.397Z,3.47
2017-10-04T05:34:58.991Z,3.03
2017-10-04T05:37:32.697Z,2.83
2017-10-04T05:40:06.396Z,2.80
2017-10-04T05:42:39.989Z,3.00
2017-10-04T05:45:13.507Z,2.70
2017-10-04T05:47:47.098Z,3.20
2017-10-04T05:50:20.862Z,2.80
2017-10-04T05:52:54.719Z,3.17
2017-10-04T05:55:28.194Z,3.80
2017-10-04T05:58:01.674Z,3.43
2017-10-04T06:00:35.301Z,3.50
2017-10-04T06:03:09.718Z,4.40
2017-10-04T06:05:43.433Z,4.27
2017-10-04T06:08:17.221Z,3.50
2017-10-04T06:10:51.101Z,3.97
2017-10-04T06:13:24.846Z,3.70
2017-10-04T06:15:58.404Z,4.17
2017-10-04T06:18:31.922Z,3.90
2017-10-04T06:21:05.637Z,3.97
2017-10-04T06:23:39.694Z,4.67
2017-10-04T06:26:13.223Z,3.77
2017-10-04T06:28:47.048Z,4.20
2017-10-04T06:31:20.648Z,3.67
2017-10-04T06:33:54.970Z,3.73
2017-10-04T06:36:28.569Z,3.90
2017-10-04T06:39:02.077Z,4.57
2017-10-04T06:41:35.986Z,4.13
2017-10-04T06:44:10.135Z,5.60
2017-10-04T06:46:43.697Z,4.07
2017-10-04T06:49:17.392Z,3.90
2017-10-04T06:51:51.406Z,5.00
2017-10-04T06:54:25.205Z,4.33
2017-10-04T06:56:59.501Z,3.90
2017-10-04T06:59:33.092Z,3.70
2017-10-04T07:02:06.734Z,4.73
2017-10-04T07:04:40.534Z,4.03
2017-10-04T07:07:14.073Z,4.50
2017-10-04T07:09:48.543Z,4.70
2017-10-04T07:12:22.258Z,4.20
2017-10-04T07:14:55.950Z,4.30
2017-10-04T07:17:29.441Z,4.23
2017-10-04T07:20:03.034Z,4.57
2017-10-04T07:22:36.557Z,4.17
2017-10-04T07:25:10.365Z,4.53
2017-10-04T07:27:43.929Z,4.53
2017-10-04T07:30:17.537Z,5.87
2017-10-04T07:32:52.274Z,4.70
2017-10-04T07:35:25.897Z,5.00
2017-10-04T07:37:59.805Z,5.10
2017-10-04T07:40:33.401Z,5.37
2017-10-04T07:43:07.081Z,6.07
2017-10-04T07:45:40.693Z,6.97
2017-10-04T07:48:14.413Z,6.10
2017-10-04T07:50:48.002Z,6.67
2017-10-04T07:53:21.517Z,7.27
2017-10-04T07:55:55.116Z,6.90
2017-10-04T07:58:28.693Z,7.53
2017-10-04T08:01:03.025Z,11.37
2017-10-04T08:03:36.586Z,14.60
2017-10-04T08:06:10.209Z,8.17
2017-10-04T08:08:43.829Z,6.60
2017-10-04T08:11:17.296Z,5.53
2017-10-04T08:13:51.709Z,6.60
2017-10-04T08:16:25.333Z,6.07
2017-10-04T08:18:58.950Z,5.33
2017-10-04T08:21:32.549Z,5.30
2017-10-04T08:24:06.064Z,5.50
2017-10-04T08:26:39.601Z,4.97
2017-10-04T08:29:13.350Z,4.50
2017-10-04T08:31:47.119Z,4.50
2017-10-04T08:34:20.720Z,4.70
2017-10-04T08:36:54.466Z,4.40
2017-10-04T08:39:28.573Z,4.57
2017-10-04T08:42:02.165Z,4.70
2017-10-04T08:44:35.742Z,4.60
2017-10-04T08:47:21.365Z,5.17
2017-10-04T08:49:54.917Z,3.70
2017-10-04T08:52:29.282Z,3.70
2017-10-04T08:55:03.052Z,3.80
2017-10-04T08:57:36.653Z,4.40
2017-10-04T09:00:11.222Z,4.00
2017-10-04T09:02:45.644Z,3.90
2017-10-04T09:05:32.021Z,3.00
2017-10-04T09:08:06.350Z,2.70
2017-10-04T09:10:39.914Z,2.30
2017-10-04T09:13:13.748Z,2.20
2017-10-04T09:15:47.349Z,2.27
2017-10-04T09:18:21.363Z,2.20
2017-10-04T09:20:54.906Z,1.63
2017-10-04T09:23:28.594Z,1.47
2017-10-04T09:26:02.127Z,2.47
2017-10-04T09:28:35.867Z,2.00
2017-10-04T09:31:10.166Z,1.10
2017-10-04T09:33:43.854Z,1.60
2017-10-04T09:36:17.581Z,1.33
2017-10-04T09:38:51.198Z,1.40
2017-10-04T09:41:24.692Z,2.30
2017-10-04T09:43:58.506Z,1.60
2017-10-04T09:46:31.998Z,1.50
2017-10-04T09:49:05.565Z,1.60
2017-10-04T09:51:39.195Z,1.53
2017-10-04T09:54:13.109Z,1.70
2017-10-04T09:56:47.216Z,2.03
2017-10-04T09:59:21.027Z,1.70
2017-10-04T10:01:54.625Z,2.30
2017-10-04T10:04:28.318Z,1.70
2017-10-04T10:07:02.885Z,1.50
2017-10-04T10:09:36.556Z,2.30
2017-10-04T10:12:10.306Z,1.67
2017-10-04T10:14:44.059Z,1.27
2017-10-04T10:17:17.605Z,1.20
2017-10-04T10:19:51.364Z,1.50
2017-10-04T10:22:24.912Z,1.70
2017-10-04T10:24:58.536Z,1.70
2017-10-04T10:27:32.016Z,1.70
2017-10-04T10:30:05.766Z,1.37
2017-10-04T10:32:39.306Z,1.20
2017-10-04T10:35:13.900Z,1.20
2017-10-04T10:37:48.700Z,1.30
2017-10-04T10:40:23.250Z,1.30
2017-10-04T10:42:56.760Z,1.23
2017-10-04T10:45:31.038Z,1.03
2017-10-04T10:48:04.521Z,1.00
2017-10-04T10:50:38.345Z,0.97
2017-10-04T10:53:11.933Z,1.10
2017-10-04T10:55:45.562Z,1.40
2017-10-04T10:58:19.170Z,1.07
2017-10-04T11:00:52.733Z,1.67
2017-10-04T11:03:26.217Z,1.20
2017-10-04T11:05:59.961Z,1.47
2017-10-04T11:08:33.566Z,1.20
2017-10-04T11:11:07.212Z,1.13
2017-10-04T11:13:40.864Z,1.20
2017-10-04T11:16:15.385Z,1.20
2017-10-04T11:18:49.524Z,1.83
2017-10-04T11:21:23.198Z,1.17
2017-10-04T11:23:56.986Z,1.57
2017-10-04T11:26:30.624Z,1.53
2017-10-04T11:29:04.934Z,1.33
2017-10-04T11:31:38.394Z,1.07
2017-10-04T11:34:11.933Z,2.80
2017-10-04T11:36:46.333Z,1.57
2017-10-04T11:39:20.153Z,1.33
2017-10-04T11:41:53.857Z,1.20
2017-10-04T11:44:27.486Z,1.23
2017-10-04T11:47:01.025Z,1.43
2017-10-04T11:49:34.618Z,1.40
2017-10-04T11:52:08.152Z,1.60
2017-10-04T11:54:41.753Z,3.57
2017-10-04T11:57:15.349Z,1.17
2017-10-04T11:59:49.056Z,1.57
2017-10-04T12:02:22.761Z,1.20
2017-10-04T12:04:56.225Z,1.50
2017-10-04T12:07:29.936Z,1.70
2017-10-04T12:10:03.584Z,2.20
2017-10-04T12:12:37.629Z,1.13
2017-10-04T12:15:11.230Z,1.20
2017-10-04T12:17:44.743Z,1.33
2017-10-04T12:20:18.378Z,2.10
2017-10-04T12:22:51.973Z,1.13
2017-10-04T12:25:26.286Z,1.57
2017-10-04T12:27:59.788Z,1.00
2017-10-04T12:30:33.291Z,1.30
2017-10-04T12:33:07.008Z,2.03
2017-10-04T12:35:41.291Z,2.13
2017-10-04T12:38:14.922Z,1.30
2017-10-04T12:40:48.617Z,1.13
2017-10-04T12:43:22.430Z,1.20
2017-10-04T12:45:55.993Z,1.40
2017-10-04T12:48:30.579Z,1.37
2017-10-04T12:51:04.151Z,1.20
2017-10-04T12:53:38.170Z,1.33
2017-10-04T12:56:11.757Z,2.10
2017-10-04T12:58:45.226Z,2.10
2017-10-04T13:01:19.556Z,1.40
2017-10-04T13:03:53.175Z,1.40
2017-10-04T13:06:26.738Z,3.70
2017-10-04T13:09:00.288Z,1.30
2017-10-04T13:11:34.169Z,1.33
2017-10-04T13:14:08.619Z,1.57
2017-10-04T13:16:42.920Z,1.20
2017-10-04T13:19:16.386Z,2.17
2017-10-04T13:21:49.985Z,1.20
2017-10-04T13:24:23.724Z,1.80
2017-10-04T13:26:57.189Z,1.50
2017-10-04T13:29:30.826Z,1.33
2017-10-04T13:32:04.402Z,1.37
2017-10-04T13:34:37.970Z,1.27
2017-10-04T13:37:11.486Z,1.50
2017-10-04T13:39:45.025Z,1.20
2017-10-04T13:42:19.301Z,1.30
2017-10-04T13:44:53.141Z,2.37
2017-10-04T13:47:26.845Z,1.43
2017-10-04T13:50:00.449Z,1.50
2017-10-04T13:52:33.953Z,1.27
2017-10-04T13:55:07.855Z,1.90
2017-10-04T13:57:41.514Z,1.43
2017-10-04T14:00:15.141Z,1.40
2017-10-04T14:02:48.753Z,1.80
2017-10-04T14:05:22.458Z,1.40
2017-10-04T14:07:56.006Z,2.13
2017-10-04T14:10:29.478Z,1.47
2017-10-04T14:13:03.098Z,1.40
2017-10-04T14:15:36.895Z,1.27
2017-10-04T14:18:11.738Z,2.57
2017-10-04T14:20:45.304Z,1.23
2017-10-04T14:23:19.457Z,1.43
2017-10-04T14:25:53.082Z,1.73
2017-10-04T14:28:27.339Z,1.30
2017-10-04T14:31:03.113Z,1.77
2017-10-04T14:33:36.725Z,1.37
2017-10-04T14:36:11.271Z,1.20
2017-10-04T14:38:45.001Z,1.63
2017-10-04T14:41:18.610Z,1.83
2017-10-04T14:43:52.136Z,2.07
2017-10-04T14:46:26.431Z,1.33
2017-10-04T14:49:00.139Z,1.20
2017-10-04T14:51:33.825Z,1.23
2017-10-04T14:54:07.429Z,1.50
2017-10-04T14:56:41.025Z,1.57
2017-10-04T14:59:14.625Z,1.90
2017-10-04T15:01:48.375Z,1.70
2017-10-04T15:04:21.921Z,1.70
2017-10-04T15:06:56.296Z,1.50
2017-10-04T15:09:30.776Z,1.80
2017-10-04T15:12:04.475Z,1.40
2017-10-04T15:14:37.975Z,1.50
2017-10-04T15:17:11.586Z,1.47
2017-10-04T15:19:45.162Z,1.60
2017-10-04T15:22:18.746Z,2.03
2017-10-04T15:24:52.233Z,1.77
2017-10-04T15:27:25.778Z,2.07
2017-10-04T15:29:59.488Z,1.67
2017-10-04T15:32:33.192Z,2.03
2017-10-04T15:35:06.750Z,1.70
2017-10-04T15:37:40.365Z,1.57
2017-10-04T15:40:14.184Z,1.93
2017-10-04T15:42:47.806Z,1.80
2017-10-04T15:45:21.386Z,1.70
2017-10-04T15:47:54.985Z,1.50
2017-10-04T15:50:28.869Z,1.90
2017-10-04T15:53:02.502Z,1.60
2017-10-04T15:55:36.049Z,1.63
2017-10-04T15:58:09.693Z,1.30
2017-10-04T16:00:43.249Z,1.57
2017-10-04T16:03:17.002Z,1.83
2017-10-04T16:05:50.618Z,1.70
2017-10-04T16:08:24.190Z,1.90
2017-10-04T16:10:57.771Z,1.43
2017-10-04T16:13:31.381Z,1.80
2017-10-04T16:16:05.789Z,1.83
2017-10-04T16:18:39.622Z,1.87
2017-10-04T16:21:13.541Z,1.57
2017-10-04T16:23:47.341Z,2.37
2017-10-04T16:26:20.894Z,1.90
2017-10-04T16:28:54.416Z,1.97
2017-10-04T16:31:28.353Z,2.10
2017-10-04T16:34:02.166Z,1.20
2017-10-04T16:36:35.863Z,2.37
2017-10-04T16:39:09.669Z,3.20
2017-10-04T16:41:43.158Z,2.20
2017-10-04T16:44:16.736Z,1.87
2017-10-04T16:46:50.956Z,1.57
2017-10-04T16:49:24.701Z,1.80
2017-10-04T16:51:58.966Z,1.50
2017-10-04T16:54:32.597Z,1.30
2017-10-04T16:57:06.198Z,5.13
2017-10-04T16:59:39.809Z,4.93
2017-10-04T17:02:13.384Z,3.50
2017-10-04T17:04:47.014Z,2.80
2017-10-04T17:07:20.602Z,1.73
2017-10-04T17:09:55.006Z,1.60
2017-10-04T17:12:28.541Z,1.60
2017-10-04T17:15:02.014Z,1.50
2017-10-04T17:17:37.008Z,2.10
2017-10-04T17:20:11.698Z,3.63
2017-10-04T17:22:45.145Z,1.83
2017-10-04T17:25:18.602Z,1.87
2017-10-04T17:27:52.117Z,2.10
2017-10-04T17:30:25.798Z,2.23
2017-10-04T17:32:59.237Z,2.00
2017-10-04T17:35:32.881Z,1.70
2017-10-04T17:38:06.406Z,1.50
2017-10-04T17:40:39.897Z,2.07
2017-10-04T17:43:13.446Z,1.63
2017-10-04T17:45:47.670Z,1.63
2017-10-04T17:48:21.865Z,1.73
2017-10-04T17:50:56.387Z,1.30
2017-10-04T17:53:30.043Z,1.90
2017-10-04T17:56:04.334Z,2.20
2017-10-04T17:58:38.680Z,1.60
2017-10-04T18:01:13.066Z,1.80
2017-10-04T18:03:47.117Z,2.00
2017-10-04T18:06:20.626Z,2.00
2017-10-04T18:08:55.156Z,1.83
2017-10-04T18:11:28.819Z,2.07
2017-10-04T18:14:02.257Z,1.87
2017-10-04T18:16:36.073Z,1.97
2017-10-04T18:19:09.518Z,6.60
2017-10-04T18:21:42.975Z,7.43
2017-10-04T18:24:16.569Z,2.30
2017-10-04T18:26:50.238Z,2.00
2017-10-04T18:29:23.754Z,2.57
2017-10-04T18:31:57.372Z,1.97
2017-10-04T18:34:30.815Z,1.80
2017-10-04T18:37:05.100Z,1.73
2017-10-04T18:39:39.305Z,1.77
2017-10-04T18:42:12.837Z,2.10
2017-10-04T18:44:46.473Z,2.13
2017-10-04T18:47:20.112Z,1.80
2017-10-04T18:49:53.741Z,1.90
2017-10-04T18:52:27.414Z,2.30
2017-10-04T18:55:00.925Z,1.80
2017-10-04T18:57:35.129Z,2.20
2017-10-04T19:00:09.341Z,2.27
2017-10-04T19:02:43.658Z,2.10
2017-10-04T19:05:17.877Z,2.13
2017-10-04T19:07:51.409Z,2.00
2017-10-04T19:10:24.909Z,3.50
2017-10-04T19:12:59.201Z,2.30
2017-10-04T19:15:33.413Z,2.70
2017-10-04T19:18:06.945Z,1.80
2017-10-04T19:20:41.220Z,2.63
2017-10-04T19:23:15.533Z,2.00
2017-10-04T19:25:49.033Z,2.30
2017-10-04T19:28:22.684Z,2.27
2017-10-04T19:30:57.219Z,2.10
2017-10-04T19:33:30.761Z,2.10
2017-10-04T19:36:04.282Z,2.63
2017-10-04T19:38:37.893Z,2.60
2017-10-04T19:41:11.502Z,2.97
2017-10-04T19:43:46.007Z,3.03
2017-10-04T19:46:19.585Z,2.30
2017-10-04T19:48:53.423Z,2.23
2017-10-04T19:51:27.715Z,2.60
2017-10-04T19:54:01.447Z,1.93
2017-10-04T19:56:34.884Z,2.53
2017-10-04T19:59:08.397Z,1.83
2017-10-04T20:01:41.820Z,2.30
2017-10-04T20:04:15.468Z,2.07
2017-10-04T20:06:49.834Z,2.20
2017-10-04T20:09:23.365Z,2.90
2017-10-04T20:11:57.635Z,7.90
2017-10-04T20:14:31.234Z,6.93
2017-10-04T20:17:04.882Z,2.87
2017-10-04T20:19:38.531Z,2.20
2017-10-04T20:22:12.035Z,1.80
2017-10-04T20:24:45.575Z,2.83
2017-10-04T20:27:19.161Z,2.13
2017-10-04T20:29:54.125Z,2.27
2017-10-04T20:32:27.693Z,2.30
2017-10-04T20:35:01.170Z,2.20
2017-10-04T20:37:34.809Z,2.20
2017-10-04T20:40:08.473Z,2.50
2017-10-04T20:42:41.933Z,1.60
2017-10-04T20:45:15.585Z,1.90
2017-10-04T20:47:49.097Z,2.13
2017-10-04T20:50:22.626Z,2.00
2017-10-04T20:52:56.254Z,2.23
2017-10-04T20:55:29.904Z,2.53
2017-10-04T20:58:04.193Z,1.80
2017-10-04T21:00:37.708Z,2.10
2017-10-04T21:03:11.217Z,2.30
2017-10-04T21:05:44.865Z,2.80
2017-10-04T21:08:18.537Z,2.30
2017-10-04T21:10:51.974Z,2.10
2017-10-04T21:13:25.486Z,2.60
2017-10-04T21:15:59.026Z,3.40
2017-10-04T21:18:32.613Z,1.90
2017-10-04T21:21:06.144Z,2.40
2017-10-04T21:23:40.411Z,2.50
2017-10-04T21:26:13.942Z,2.37
2017-10-04T21:28:47.384Z,1.60
2017-10-04T21:31:21.066Z,1.90
2017-10-04T21:33:54.581Z,2.27
2017-10-04T21:36:28.234Z,2.00
2017-10-04T21:39:02.533Z,2.17
2017-10-04T21:41:36.052Z,2.07
2017-10-04T21:44:10.186Z,2.40
2017-10-04T21:46:43.679Z,2.40
2017-10-04T21:49:17.953Z,2.60
2017-10-04T21:51:51.473Z,1.87
2017-10-04T21:54:24.918Z,1.80
2017-10-04T21:56:58.371Z,2.10
2017-10-04T21:59:31.874Z,2.03
2017-10-04T22:02:06.168Z,2.53
2017-10-04T22:04:40.365Z,2.90
2017-10-04T22:07:13.956Z,2.27
2017-10-04T22:09:50.236Z,1.53
2017-10-04T22:12:25.001Z,1.93
2017-10-04T22:14:58.491Z,2.10
2017-10-04T22:17:32.305Z,1.77
2017-10-04T22:20:06.789Z,1.97
2017-10-04T22:22:40.419Z,1.60
2017-10-04T22:25:14.825Z,2.30
2017-10-04T22:27:48.421Z,4.10
2017-10-04T22:30:22.258Z,3.50
2017-10-04T22:32:55.864Z,3.00
2017-10-04T22:35:29.666Z,5.73
2017-10-04T22:38:03.262Z,5.27
2017-10-04T22:40:36.954Z,1.90
2017-10-04T22:43:10.775Z,1.73
2017-10-04T22:45:44.241Z,1.30
2017-10-04T22:48:17.776Z,1.70
2017-10-04T22:50:52.284Z,2.10
2017-10-04T22:53:25.802Z,2.00
2017-10-04T22:55:59.405Z,2.30
2017-10-04T22:58:32.949Z,1.53
2017-10-04T23:01:06.533Z,2.00
2017-10-04T23:03:40.515Z,4.10
2017-10-04T23:06:14.294Z,1.70
2017-10-04T23:08:48.226Z,2.50
2017-10-04T23:11:22.022Z,2.57
2017-10-04T23:13:55.613Z,2.80
2017-10-04T23:16:30.506Z,2.00
2017-10-04T23:19:04.150Z,1.50
2017-10-04T23:21:37.760Z,2.10
2017-10-04T23:24:11.277Z,2.30
2017-10-04T23:26:45.777Z,2.00
2017-10-04T23:29:19.339Z,1.80
2017-10-04T23:31:52.977Z,1.60
2017-10-04T23:34:26.577Z,1.50
2017-10-04T23:37:00.437Z,2.00
2017-10-04T23:39:34.049Z,2.27
2017-10-04T23:42:07.629Z,2.00
2017-10-04T23:44:41.497Z,2.63
2017-10-04T23:47:14.985Z,2.00
2017-10-04T23:49:48.533Z,1.83
2017-10-04T23:52:22.765Z,2.27
2017-10-04T23:54:56.996Z,1.90
2017-10-04T23:57:30.552Z,1.60
